EB7GYR Weather Reports


time (UTC)temp
C
wind
direction
speed
KPH
gust
KPH
rain 1hr
cm
rain 24hr
cm
rain mn
cm
humidity
%
barometer
mb
20190422124518 20 225 14.5 27.4 0.00 0.00 0.00 65 1003.6
20190422123019 20 225 11.3 22.5 0.00 0.00 0.00 65 1003.6
20190422121518 20 225 12.9 30.6 0.00 0.00 0.00 63 1003.7
20190422120017 20 202 12.9 29.0 0.00 0.00 0.00 64 1003.8
20190422114517 20 225 12.9 22.5 0.00 0.00 0.00 62 1004.0
20190422113017 20 225 11.3 24.1 0.00 0.00 0.00 61 1004.1
20190422111517 20 225 9.7 22.5 0.00 0.00 0.00 63 1004.3
20190422110017 19 202 9.7 20.9 0.00 0.00 0.00 69 1004.5
20190422104517 18 180 11.3 20.9 0.00 0.00 0.00 68 1004.7
20190422103018 18 180 11.3 19.3 0.00 0.00 0.00 69 1004.7
20190422101517 18 180 11.3 25.7 0.00 0.00 0.00 68 1004.9
20190422100018 17 180 9.7 17.7 0.00 0.00 0.00 73 1005.0
20190422094517 16 180 8.0 16.1 0.00 0.00 0.00 78 1005.1
20190422093018 16 180 8.0 14.5 0.00 0.00 0.00 80 1005.1
20190422090018 15 135 4.8 9.7 0.00 0.00 0.00 77 1005.0
20190422084517 14 135 4.8 8.0 0.00 0.00 0.00 80 1004.9
20190422083017 14 135 3.2 6.4 0.00 0.00 0.00 79 1005.0
20190422081519 14 0.0 3.2 0.00 0.00 0.00 81 1005.2
20190422080017 13 135 4.8 6.4 0.00 0.00 0.00 81 1005.0
20190422074517 13 135 4.8 8.0 0.00 0.00 0.00 84 1004.8
20190422073017 13 135 4.8 8.0 0.00 0.00 0.00 86 1004.5
20190422071516 12 135 6.4 12.9 0.00 0.00 0.00 88 1004.4
20190422070018 12 135 6.4 12.9 0.00 0.00 0.00 89 1004.4
20190422064516 12 0.0 6.4 0.00 0.00 0.00 90 1004.4
20190422063017 12 0.0 0.0 0.00 0.00 0.00 90 1004.4
20190422061533 12 0.0 0.0 0.00 0.00 0.00 90 1004.3
20190422060016 12 0.0 0.0 0.00 0.00 0.00 89 1004.3
20190422054516 12 0.0 0.0 0.00 0.00 0.00 89 1004.1
20190422053017 12 0.0 0.0 0.00 0.00 0.00 89 1004.1
20190422051517 12 0.0 3.2 0.00 0.00 0.00 88 1004.1
20190422050017 12 0.0 3.2 0.00 0.00 0.00 88 1004.1
20190422044517 12 135 3.2 8.0 0.00 0.00 0.00 88 1004.1
20190422043017 13 112 1.6 6.4 0.00 0.00 0.00 87 1004.1
20190422041518 13 0.0 0.0 0.00 0.00 0.00 87 1004.1
20190422040017 13 0.0 0.0 0.00 0.00 0.00 87 1004.3
20190422034516 13 0.0 1.6 0.00 0.00 0.00 87 1004.5
20190422033017 13 112 1.6 4.8 0.00 0.00 0.00 87 1004.6
20190422031517 13 0.0 1.6 0.00 0.00 0.00 87 1004.8
20190422030020 13 0.0 3.2 0.00 0.00 0.00 87 1004.9
20190422024517 13 0.0 3.2 0.00 0.00 0.00 87 1004.8
20190422023016 13 45 1.6 4.8 0.00 0.00 0.00 86 1005.0
20190422021516 13 0.0 1.6 0.00 0.00 0.00 86 1004.9
20190422020016 13 0.0 4.8 0.00 0.00 0.00 86 1005.0
20190422014516 13 0.0 3.2 0.00 0.00 0.00 86 1005.1
20190422013016 13 45 1.6 4.8 0.00 0.00 0.00 85 1005.2
20190422011516 13 45 1.6 4.8 0.00 0.00 0.00 84 1005.4
20190422010016 13 292 1.6 6.4 0.00 0.00 0.00 82 1005.7
20190422004516 14 292 1.6 6.4 0.00 0.00 0.00 82 1005.8
20190422003016 14 292 3.2 8.0 0.00 0.00 0.00 83 1006.0
20190422001516 14 292 6.4 14.5 0.00 0.00 0.00 84 1006.1
20190422000018 14 292 4.8 12.9 0.00 0.00 0.00 85 1006.2
20190421234518 13 45 3.2 6.4 0.00 0.00 0.00 84 1006.3
20190421233019 14 45 1.6 3.2 0.00 0.00 0.00 83 1006.5
20190421231518 14 45 3.2 4.8 0.00 0.00 0.00 83 1006.6
20190421230018 14 67 3.2 6.4 0.00 0.00 0.00 82 1006.7
20190421224518 15 67 4.8 8.0 0.00 0.00 0.00 81 1006.8
20190421223018 15 292 3.2 8.0 0.00 0.00 0.00 80 1006.7
20190421221518 15 292 6.4 12.9 0.00 0.00 0.00 80 1006.8
20190421220018 15 292 4.8 12.9 0.00 0.00 0.00 79 1006.7
20190421214517 15 292 6.4 12.9 0.00 0.00 0.00 78 1006.8
20190421213016 15 292 6.4 14.5 0.00 0.00 0.00 78 1006.7
20190421211517 16 292 6.4 16.1 0.00 0.00 0.00 77 1006.8
20190421210016 16 292 9.7 17.7 0.00 0.00 0.00 77 1006.8
20190421204516 16 292 11.3 19.3 0.00 0.00 0.00 76 1006.7
20190421203016 16 292 11.3 24.1 0.00 0.00 0.00 76 1006.7
20190421201516 16 292 12.9 20.9 0.00 0.00 0.00 75 1006.7
20190421200017 16 292 11.3 20.9 0.00 0.00 0.00 74 1006.4
20190421194517 16 292 9.7 20.9 0.00 0.00 0.00 72 1006.3
20190421193019 17 292 12.9 22.5 0.00 0.00 0.00 70 1006.2
20190421191532 17 292 12.9 24.1 0.00 0.00 0.00 69 1006.0
20190421190019 18 292 12.9 22.5 0.00 0.00 0.00 66 1005.9
20190421184518 18 315 6.4 16.1 0.00 0.00 0.00 62 1005.7
20190421183018 19 45 6.4 17.7 0.00 0.00 0.00 54 1005.4
20190421181518 19 45 9.7 16.1 0.00 0.00 0.00 52 1005.2
20190421180018 19 45 9.7 19.3 0.00 0.00 0.00 52 1005.1
20190421174520 20 45 9.7 19.3 0.00 0.00 0.00 51 1005.1
20190421173018 20 45 12.9 22.5 0.00 0.00 0.00 50 1005.1
20190421171518 20 45 14.5 25.7 0.00 0.00 0.00 49 1005.0
20190421170018 20 45 14.5 25.7 0.00 0.00 0.00 49 1005.1
20190421164518 20 22 16.1 24.1 0.00 0.00 0.00 48 1005.1
20190421163018 20 22 17.7 29.0 0.00 0.00 0.00 48 1005.1
20190421161517 20 22 17.7 30.6 0.00 0.00 0.00 48 1005.0
20190421160018 20 0 14.5 25.7 0.00 0.00 0.00 48 1005.1
20190421154519 20 22 16.1 30.6 0.00 0.00 0.00 48 1005.2
20190421153017 20 0 14.5 25.7 0.00 0.00 0.00 49 1005.2
20190421151517 19 22 14.5 27.4 0.00 0.00 0.00 50 1005.4
20190421150018 19 0 16.1 29.0 0.00 0.00 0.00 51 1005.5
20190421144517 19 0 16.1 30.6 0.00 0.00 0.00 50 1005.6
20190421143017 19 0 14.5 22.5 0.00 0.00 0.00 50 1005.7
20190421141518 20 22 12.9 22.5 0.00 0.00 0.00 50 1005.9
20190421140017 20 337 14.5 22.5 0.00 0.00 0.00 49 1006.0
20190421134518 20 0 14.5 29.0 0.00 0.00 0.00 49 1006.0